createdAt,value
2018-06-11T00:00:13.745Z,18.70
2018-06-11T00:02:43.031Z,20.37
2018-06-11T00:05:12.351Z,17.53
2018-06-11T00:07:41.694Z,17.27
2018-06-11T00:10:10.998Z,17.40
2018-06-11T00:12:40.346Z,16.20
2018-06-11T00:15:09.735Z,27.33
2018-06-11T00:17:39.103Z,21.03
2018-06-11T00:20:08.471Z,16.90
2018-06-11T00:22:37.866Z,16.70
2018-06-11T00:25:07.307Z,16.87
2018-06-11T00:27:36.621Z,22.10
2018-06-11T00:30:05.930Z,16.80
2018-06-11T00:32:35.265Z,16.07
2018-06-11T00:35:04.566Z,16.00
2018-06-11T00:37:33.912Z,15.60
2018-06-11T00:40:03.267Z,20.13
2018-06-11T00:42:32.566Z,18.83
2018-06-11T00:45:01.882Z,16.43
2018-06-11T00:47:31.188Z,19.90
2018-06-11T00:50:00.567Z,17.57
2018-06-11T00:52:29.912Z,16.23
2018-06-11T00:54:59.225Z,13.80
2018-06-11T00:57:28.622Z,15.40
2018-06-11T00:59:57.931Z,16.57
2018-06-11T01:02:27.297Z,16.10
2018-06-11T01:04:56.666Z,15.90
2018-06-11T01:07:26.054Z,19.20
2018-06-11T01:09:55.417Z,21.50
2018-06-11T01:12:24.759Z,17.47
2018-06-11T01:14:54.103Z,25.63
2018-06-11T01:17:23.507Z,22.00
2018-06-11T01:19:53.367Z,15.83
2018-06-11T01:22:22.731Z,19.50
2018-06-11T01:24:51.765Z,21.17
2018-06-11T01:27:20.976Z,19.00
2018-06-11T01:29:50.322Z,15.00
2018-06-11T01:32:19.630Z,14.70
2018-06-11T01:34:48.961Z,20.60
2018-06-11T01:37:18.290Z,23.33
2018-06-11T01:39:47.603Z,26.37
2018-06-11T01:42:16.937Z,15.43
2018-06-11T01:44:46.257Z,15.37
2018-06-11T01:47:15.582Z,23.23
2018-06-11T01:49:44.887Z,15.87
2018-06-11T01:52:14.238Z,20.13
2018-06-11T01:54:43.569Z,20.30
2018-06-11T01:57:12.910Z,19.10
2018-06-11T01:59:42.233Z,17.83
2018-06-11T02:02:11.569Z,15.17
2018-06-11T02:04:40.858Z,19.63
2018-06-11T02:07:10.179Z,27.40
2018-06-11T02:09:39.481Z,23.93
2018-06-11T02:12:08.802Z,18.70
2018-06-11T02:14:38.119Z,17.00
2018-06-11T02:17:07.510Z,21.33
2018-06-11T02:19:36.859Z,14.70
2018-06-11T02:22:06.217Z,20.03
2018-06-11T02:24:35.483Z,19.20
2018-06-11T02:27:04.848Z,22.60
2018-06-11T02:29:34.124Z,16.17
2018-06-11T02:32:03.423Z,33.97
2018-06-11T02:34:32.782Z,16.40
2018-06-11T02:37:02.067Z,18.30
2018-06-11T02:39:31.412Z,23.83
2018-06-11T02:42:00.724Z,15.60
2018-06-11T02:44:30.048Z,25.67
2018-06-11T02:46:59.348Z,20.40
2018-06-11T02:49:28.691Z,19.63
2018-06-11T02:51:57.990Z,25.30
2018-06-11T02:54:27.341Z,26.83
2018-06-11T02:56:56.702Z,16.73
2018-06-11T02:59:26.054Z,12.23
2018-06-11T03:01:55.448Z,20.80
2018-06-11T03:04:24.817Z,13.17
2018-06-11T03:06:54.251Z,17.00
2018-06-11T03:09:23.694Z,18.40
2018-06-11T03:11:53.199Z,24.50
2018-06-11T03:14:23.641Z,24.77
2018-06-11T03:16:54.131Z,22.47
2018-06-11T03:19:23.531Z,25.43
2018-06-11T03:21:52.971Z,21.97
2018-06-11T03:24:22.329Z,20.80
2018-06-11T03:26:51.730Z,35.07
2018-06-11T03:29:21.137Z,25.90
2018-06-11T03:31:50.577Z,24.93
2018-06-11T03:34:19.935Z,29.60
2018-06-11T03:36:49.371Z,33.70
2018-06-11T03:39:18.731Z,28.87
2018-06-11T03:41:48.155Z,47.73
2018-06-11T03:44:17.527Z,38.40
2018-06-11T03:46:46.912Z,26.57
2018-06-11T03:49:16.402Z,25.13
2018-06-11T03:51:45.767Z,28.73
2018-06-11T03:54:15.152Z,24.03
2018-06-11T03:56:44.611Z,20.97
2018-06-11T03:59:14.821Z,18.03
2018-06-11T04:01:44.250Z,26.07
2018-06-11T04:04:13.718Z,33.90
2018-06-11T04:06:43.138Z,31.33
2018-06-11T04:09:12.543Z,36.80
2018-06-11T04:11:41.919Z,24.20
2018-06-11T04:14:11.252Z,35.27
2018-06-11T04:16:40.753Z,38.37
2018-06-11T04:19:10.174Z,32.73
2018-06-11T04:21:39.623Z,27.77
2018-06-11T04:24:09.090Z,27.03
2018-06-11T04:26:38.425Z,34.77
2018-06-11T04:29:07.823Z,26.60
2018-06-11T04:31:37.200Z,17.30
2018-06-11T04:34:06.724Z,24.33
2018-06-11T04:36:36.157Z,20.70
2018-06-11T04:39:07.441Z,18.63
2018-06-11T04:41:36.873Z,18.43
2018-06-11T04:44:06.308Z,16.87
2018-06-11T04:46:35.653Z,19.03
2018-06-11T04:49:05.061Z,18.07
2018-06-11T04:51:34.411Z,22.63
2018-06-11T04:54:03.808Z,27.97
2018-06-11T04:56:34.215Z,18.43
2018-06-11T04:59:03.584Z,19.70
2018-06-11T05:01:33.000Z,16.73
2018-06-11T05:04:02.434Z,21.53
2018-06-11T05:06:31.882Z,22.93
2018-06-11T05:09:01.349Z,23.07
2018-06-11T05:11:30.817Z,19.33
2018-06-11T05:14:00.356Z,14.97
2018-06-11T05:16:29.785Z,30.90
2018-06-11T05:18:59.341Z,16.20
2018-06-11T05:21:28.835Z,19.90
2018-06-11T05:23:58.272Z,15.20
2018-06-11T05:26:27.688Z,18.73
2018-06-11T05:28:57.131Z,16.83
2018-06-11T05:31:26.606Z,21.13
2018-06-11T05:33:56.083Z,16.80
2018-06-11T05:36:25.482Z,25.53
2018-06-11T05:38:54.916Z,12.00
2018-06-11T05:41:24.399Z,14.23
2018-06-11T05:43:53.854Z,14.03
2018-06-11T05:46:23.278Z,12.40
2018-06-11T05:48:52.699Z,16.33
2018-06-11T05:51:22.185Z,11.40
2018-06-11T05:53:51.563Z,12.93
2018-06-11T05:56:20.972Z,12.37
2018-06-11T05:58:50.386Z,11.53
2018-06-11T06:01:19.829Z,12.97
2018-06-11T06:03:49.271Z,13.13
2018-06-11T06:06:18.334Z,18.33
2018-06-11T06:08:47.646Z,19.57
2018-06-11T06:11:19.059Z,12.80
2018-06-11T06:13:48.453Z,21.33
2018-06-11T06:16:17.918Z,14.47
2018-06-11T06:18:47.333Z,13.93
2018-06-11T06:21:16.728Z,17.43
2018-06-11T06:23:46.144Z,20.07
2018-06-11T06:26:15.493Z,14.80
2018-06-11T06:28:44.872Z,15.27
2018-06-11T06:31:14.194Z,14.50
2018-06-11T06:33:43.662Z,15.67
2018-06-11T06:36:13.052Z,15.03
2018-06-11T06:38:42.435Z,15.93
2018-06-11T06:41:11.779Z,15.50
2018-06-11T06:43:41.251Z,15.03
2018-06-11T06:46:10.675Z,14.73
2018-06-11T06:48:40.052Z,13.10
2018-06-11T06:51:09.398Z,16.30
2018-06-11T06:53:38.769Z,14.80
2018-06-11T06:56:08.196Z,14.10
2018-06-11T06:58:37.735Z,14.97
2018-06-11T07:01:07.156Z,15.00
2018-06-11T07:03:36.600Z,17.30
2018-06-11T07:06:05.955Z,15.80
2018-06-11T07:08:35.345Z,13.73
2018-06-11T07:11:04.815Z,17.40
2018-06-11T07:13:34.221Z,17.87
2018-06-11T07:16:03.634Z,14.53
2018-06-11T07:18:33.069Z,16.23
2018-06-11T07:21:02.488Z,13.50
2018-06-11T07:23:31.885Z,14.60
2018-06-11T07:26:01.292Z,18.77
2018-06-11T07:28:30.717Z,17.53
2018-06-11T07:31:00.144Z,12.80
2018-06-11T07:33:29.607Z,12.83
2018-06-11T07:35:59.071Z,12.63
2018-06-11T07:38:28.590Z,17.00
2018-06-11T07:40:58.069Z,16.33
2018-06-11T07:43:27.480Z,12.97
2018-06-11T07:45:56.899Z,13.00
2018-06-11T07:48:26.352Z,11.60
2018-06-11T07:50:55.847Z,11.80
2018-06-11T07:53:25.212Z,11.83
2018-06-11T07:55:58.904Z,14.20
2018-06-11T07:58:28.352Z,12.50
2018-06-11T08:00:57.809Z,12.73
2018-06-11T08:03:27.198Z,12.83
2018-06-11T08:05:56.540Z,13.40
2018-06-11T08:08:26.828Z,12.53
2018-06-11T08:10:56.207Z,14.17
2018-06-11T08:13:25.649Z,13.43
2018-06-11T08:15:55.011Z,12.17
2018-06-11T08:18:24.411Z,16.00
2018-06-11T08:20:53.865Z,12.20
2018-06-11T08:23:23.312Z,12.60
2018-06-11T08:25:52.643Z,13.90
2018-06-11T08:28:22.029Z,13.17
2018-06-11T08:30:51.379Z,11.47
2018-06-11T08:33:20.827Z,12.80
2018-06-11T08:35:50.178Z,12.60
2018-06-11T08:38:19.586Z,13.47
2018-06-11T08:40:48.951Z,12.50
2018-06-11T08:43:18.309Z,16.63
2018-06-11T08:45:47.642Z,12.87
2018-06-11T08:48:16.968Z,12.90
2018-06-11T08:50:46.288Z,10.87
2018-06-11T08:53:15.642Z,10.67
2018-06-11T08:55:44.977Z,11.07
2018-06-11T08:58:14.458Z,11.20
2018-06-11T09:00:43.849Z,12.47
2018-06-11T09:03:13.283Z,11.43
2018-06-11T09:05:42.639Z,11.57
2018-06-11T09:08:12.047Z,10.40
2018-06-11T09:10:41.392Z,12.10
2018-06-11T09:13:10.795Z,10.83
2018-06-11T09:15:40.199Z,13.00
2018-06-11T09:18:09.709Z,10.23
2018-06-11T09:20:39.059Z,11.73
2018-06-11T09:23:08.445Z,12.43
2018-06-11T09:25:37.836Z,9.70
2018-06-11T09:28:07.184Z,9.20
2018-06-11T09:30:36.605Z,8.93
2018-06-11T09:33:06.044Z,8.80
2018-06-11T09:35:35.417Z,8.87
2018-06-11T09:38:04.801Z,9.10
2018-06-11T09:40:33.818Z,9.30
2018-06-11T09:43:03.448Z,8.70
2018-06-11T09:45:32.836Z,8.77
2018-06-11T09:48:02.245Z,8.57
2018-06-11T09:50:31.720Z,9.13
2018-06-11T09:53:01.084Z,8.20
2018-06-11T09:55:30.454Z,14.47
2018-06-11T09:57:59.851Z,10.33
2018-06-11T10:00:36.117Z,10.17
2018-06-11T10:03:05.873Z,9.13
2018-06-11T10:05:35.245Z,9.23
2018-06-11T10:08:04.736Z,17.47
2018-06-11T10:10:34.124Z,11.03
2018-06-11T10:13:03.519Z,9.00
2018-06-11T10:15:32.905Z,7.67
2018-06-11T10:18:02.307Z,18.93
2018-06-11T10:20:31.692Z,7.30
2018-06-11T10:23:01.107Z,7.87
2018-06-11T10:25:30.440Z,9.00
2018-06-11T10:27:59.848Z,8.63
2018-06-11T10:30:29.193Z,7.37
2018-06-11T10:32:58.550Z,6.90
2018-06-11T10:35:27.917Z,7.33
2018-06-11T10:37:57.282Z,8.13
2018-06-11T10:40:26.653Z,11.53
2018-06-11T10:42:56.077Z,8.47
2018-06-11T10:45:25.431Z,8.70
2018-06-11T10:47:54.812Z,8.53
2018-06-11T10:50:24.238Z,9.53
2018-06-11T10:52:53.639Z,8.07
2018-06-11T10:55:23.008Z,7.37
2018-06-11T10:57:52.491Z,9.13
2018-06-11T11:00:21.895Z,6.90
2018-06-11T11:02:51.248Z,8.20
2018-06-11T11:05:20.691Z,9.17
2018-06-11T11:07:50.033Z,8.10
2018-06-11T11:10:19.465Z,7.77
2018-06-11T11:12:48.815Z,9.30
2018-06-11T11:15:18.162Z,9.43
2018-06-11T11:17:47.528Z,13.60
2018-06-11T11:20:16.895Z,11.23
2018-06-11T11:22:46.273Z,8.90
2018-06-11T11:25:15.695Z,10.07
2018-06-11T11:27:45.190Z,10.53
2018-06-11T11:30:14.558Z,9.63
2018-06-11T11:32:43.979Z,12.10
2018-06-11T11:35:13.312Z,10.80
2018-06-11T11:37:42.692Z,10.70
2018-06-11T11:40:12.016Z,10.97
2018-06-11T11:42:41.360Z,13.83
2018-06-11T11:45:10.738Z,11.00
2018-06-11T11:47:40.093Z,13.23
2018-06-11T11:50:09.450Z,21.23
2018-06-11T11:52:38.836Z,12.50
2018-06-11T11:55:08.286Z,15.30
2018-06-11T11:57:37.639Z,12.77
2018-06-11T12:00:06.977Z,14.87
2018-06-11T12:02:37.415Z,16.13
2018-06-11T12:05:06.748Z,13.40
2018-06-11T12:07:36.084Z,13.70
2018-06-11T12:10:05.410Z,13.67
2018-06-11T12:12:34.789Z,19.00
2018-06-11T12:15:04.171Z,14.20
2018-06-11T12:17:33.524Z,14.40
2018-06-11T12:20:02.849Z,14.37
2018-06-11T12:22:32.214Z,13.27
2018-06-11T12:25:01.606Z,13.27
2018-06-11T12:27:30.975Z,13.50
2018-06-11T12:30:00.294Z,14.20
2018-06-11T12:32:29.636Z,14.13
2018-06-11T12:34:58.959Z,13.37
2018-06-11T12:37:28.331Z,12.87
2018-06-11T12:39:58.754Z,15.40
2018-06-11T12:42:28.100Z,16.50
2018-06-11T12:44:57.434Z,14.77
2018-06-11T12:47:26.860Z,14.07
2018-06-11T12:49:56.225Z,14.63
2018-06-11T12:52:25.574Z,13.47
2018-06-11T12:54:56.000Z,15.93
2018-06-11T12:57:25.371Z,15.57
2018-06-11T12:59:54.662Z,13.70
2018-06-11T13:02:24.016Z,14.93
2018-06-11T13:04:53.379Z,17.17
2018-06-11T13:07:22.751Z,14.20
2018-06-11T13:09:52.413Z,14.13
2018-06-11T13:12:21.862Z,15.40
2018-06-11T13:14:51.213Z,16.40
2018-06-11T13:17:20.541Z,16.20
2018-06-11T13:19:52.903Z,15.00
2018-06-11T13:22:22.212Z,13.67
2018-06-11T13:24:51.539Z,13.67
2018-06-11T13:27:20.845Z,14.90
2018-06-11T13:29:50.224Z,18.00
2018-06-11T13:32:19.747Z,14.97
2018-06-11T13:34:49.088Z,20.70
2018-06-11T13:37:18.419Z,18.03
2018-06-11T13:39:47.787Z,16.87
2018-06-11T13:42:17.119Z,18.03
2018-06-11T13:44:46.483Z,16.47
2018-06-11T13:47:15.807Z,19.50
2018-06-11T13:49:45.149Z,14.50
2018-06-11T13:52:14.184Z,14.77
2018-06-11T13:54:43.516Z,12.23
2018-06-11T13:57:12.873Z,13.53
2018-06-11T13:59:42.396Z,12.77
2018-06-11T14:02:11.799Z,15.57
2018-06-11T14:04:41.233Z,11.40
2018-06-11T14:07:10.555Z,10.90
2018-06-11T14:09:39.985Z,11.60
2018-06-11T14:12:09.347Z,11.30
2018-06-11T14:14:38.830Z,11.13
2018-06-11T14:17:08.186Z,13.50
2018-06-11T14:19:37.639Z,11.47
2018-06-11T14:22:07.019Z,10.63
2018-06-11T14:24:36.365Z,8.80
2018-06-11T14:27:05.725Z,7.03
2018-06-11T14:29:35.076Z,9.77
2018-06-11T14:32:04.490Z,6.50
2018-06-11T14:34:33.826Z,7.10
2018-06-11T14:37:03.179Z,11.20
2018-06-11T14:39:32.652Z,5.37
2018-06-11T14:42:02.155Z,4.93
2018-06-11T14:44:31.584Z,8.03
2018-06-11T14:47:01.000Z,9.10
2018-06-11T14:49:30.384Z,5.93
2018-06-11T14:51:59.848Z,9.90
2018-06-11T14:54:29.203Z,6.40
2018-06-11T14:56:58.656Z,6.33
2018-06-11T14:59:29.019Z,10.60
2018-06-11T15:01:58.398Z,11.50
2018-06-11T15:04:27.746Z,9.67
2018-06-11T15:06:57.134Z,10.50
2018-06-11T15:09:26.587Z,12.10
2018-06-11T15:11:55.915Z,13.17
2018-06-11T15:14:25.278Z,16.37
2018-06-11T15:16:54.608Z,15.67
2018-06-11T15:19:24.015Z,17.77
2018-06-11T15:21:53.454Z,20.47
2018-06-11T15:24:22.832Z,16.87
2018-06-11T15:26:52.185Z,19.57
2018-06-11T15:29:21.609Z,16.97
2018-06-11T15:31:50.927Z,19.43
2018-06-11T15:34:20.300Z,14.77
2018-06-11T15:36:49.661Z,16.97
2018-06-11T15:39:19.070Z,22.50
2018-06-11T15:41:48.415Z,19.23
2018-06-11T15:44:17.895Z,17.07
2018-06-11T15:46:47.253Z,18.07
2018-06-11T15:49:16.619Z,20.60
2018-06-11T15:51:45.979Z,15.80
2018-06-11T15:54:15.435Z,19.63
2018-06-11T15:56:44.803Z,23.37
2018-06-11T15:59:14.239Z,16.87
2018-06-11T16:01:43.660Z,19.03
2018-06-11T16:04:13.026Z,21.63
2018-06-11T16:06:42.363Z,18.93
2018-06-11T16:09:11.746Z,19.43
2018-06-11T16:11:41.093Z,20.17
2018-06-11T16:14:10.494Z,20.30
2018-06-11T16:16:39.916Z,21.60
2018-06-11T16:19:09.291Z,23.23
2018-06-11T16:21:38.822Z,21.20
2018-06-11T16:24:08.198Z,24.93
2018-06-11T16:26:37.577Z,23.57
2018-06-11T16:29:06.925Z,27.10
2018-06-11T16:31:36.376Z,26.23
2018-06-11T16:34:05.956Z,25.50
2018-06-11T16:36:35.376Z,27.83
2018-06-11T16:39:07.731Z,23.57
2018-06-11T16:41:37.126Z,25.60
2018-06-11T16:44:06.278Z,39.30
2018-06-11T16:46:35.501Z,26.03
2018-06-11T16:49:04.877Z,29.27
2018-06-11T16:51:34.259Z,28.20
2018-06-11T16:54:03.757Z,26.70
2018-06-11T16:56:33.220Z,26.07
2018-06-11T16:59:02.603Z,25.43
2018-06-11T17:01:32.029Z,26.97
2018-06-11T17:04:01.399Z,25.27
2018-06-11T17:06:30.829Z,32.73
2018-06-11T17:09:00.401Z,32.20
2018-06-11T17:11:29.870Z,30.50
2018-06-11T17:13:59.968Z,31.63
2018-06-11T17:16:29.261Z,30.70
2018-06-11T17:18:58.623Z,40.50
2018-06-11T17:21:28.212Z,46.40
2018-06-11T17:23:57.730Z,37.53
2018-06-11T17:26:27.198Z,32.43
2018-06-11T17:28:56.356Z,32.53
2018-06-11T17:31:25.926Z,34.93
2018-06-11T17:33:55.453Z,32.50
2018-06-11T17:36:24.939Z,36.10
2018-06-11T17:38:54.436Z,46.00
2018-06-11T17:41:23.903Z,43.93
2018-06-11T17:43:53.362Z,44.67
2018-06-11T17:46:22.908Z,38.50
2018-06-11T17:48:52.437Z,46.90
2018-06-11T17:51:21.848Z,38.93
2018-06-11T17:53:51.264Z,39.03
2018-06-11T17:56:20.600Z,46.53
2018-06-11T17:58:50.305Z,53.93
2018-06-11T18:01:21.785Z,36.87
2018-06-11T18:03:51.386Z,38.27
2018-06-11T18:06:21.215Z,38.33
2018-06-11T18:08:51.175Z,45.50
2018-06-11T18:11:20.690Z,37.20
2018-06-11T18:13:50.520Z,38.80
2018-06-11T18:16:20.238Z,37.97
2018-06-11T18:18:49.783Z,41.37
2018-06-11T18:21:18.801Z,37.47
2018-06-11T18:23:48.638Z,43.07
2018-06-11T18:26:18.023Z,38.40
2018-06-11T18:28:47.381Z,41.37
2018-06-11T18:31:16.738Z,45.40
2018-06-11T18:33:46.281Z,39.63
2018-06-11T18:36:15.751Z,41.80
2018-06-11T18:38:45.135Z,40.43
2018-06-11T18:41:14.634Z,40.80
2018-06-11T18:43:44.072Z,42.50
2018-06-11T18:46:13.625Z,52.50
2018-06-11T18:48:43.220Z,43.17
2018-06-11T18:51:12.734Z,45.70
2018-06-11T18:53:42.276Z,44.40
2018-06-11T18:56:11.715Z,41.30
2018-06-11T18:58:41.082Z,48.40
2018-06-11T19:01:10.607Z,51.93
2018-06-11T19:03:40.017Z,55.90
2018-06-11T19:06:09.495Z,53.53
2018-06-11T19:08:38.931Z,47.97
2018-06-11T19:11:08.369Z,59.00
2018-06-11T19:13:37.784Z,55.40
2018-06-11T19:16:07.177Z,50.60
2018-06-11T19:18:36.562Z,58.23
2018-06-11T19:21:06.394Z,55.37
2018-06-11T19:23:35.791Z,58.10
2018-06-11T19:26:05.188Z,70.93
2018-06-11T19:28:34.567Z,53.70
2018-06-11T19:31:03.986Z,61.77
2018-06-11T19:33:33.328Z,63.00
2018-06-11T19:36:02.716Z,64.97
2018-06-11T19:38:32.085Z,56.87
2018-06-11T19:41:01.532Z,58.67
2018-06-11T19:43:30.892Z,59.67
2018-06-11T19:46:00.377Z,60.07
2018-06-11T19:48:29.906Z,65.67
2018-06-11T19:50:59.365Z,71.20
2018-06-11T19:53:28.691Z,61.10
2018-06-11T19:55:58.184Z,63.83
2018-06-11T19:58:27.531Z,62.70
2018-06-11T20:00:56.936Z,67.33
2018-06-11T20:03:26.055Z,67.23
2018-06-11T20:05:55.252Z,61.60
2018-06-11T20:08:24.669Z,72.13
2018-06-11T20:10:54.068Z,68.37
2018-06-11T20:13:23.520Z,62.23
2018-06-11T20:15:52.923Z,72.47
2018-06-11T20:18:22.345Z,70.93
2018-06-11T20:20:51.779Z,75.90
2018-06-11T20:23:20.850Z,74.00
2018-06-11T20:25:50.124Z,72.70
2018-06-11T20:28:19.543Z,71.17
2018-06-11T20:30:48.891Z,68.13
2018-06-11T20:33:18.263Z,67.27
2018-06-11T20:35:47.639Z,73.73
2018-06-11T20:38:17.000Z,61.80
2018-06-11T20:40:46.396Z,69.80
2018-06-11T20:43:15.740Z,67.77
2018-06-11T20:45:45.109Z,64.93
2018-06-11T20:48:14.559Z,69.27
2018-06-11T20:50:43.946Z,60.83
2018-06-11T20:53:13.279Z,69.93
2018-06-11T20:55:43.716Z,72.87
2018-06-11T20:58:12.698Z,78.70
2018-06-11T21:00:41.935Z,63.50
2018-06-11T21:03:11.279Z,66.33
2018-06-11T21:05:40.647Z,72.13
2018-06-11T21:08:09.980Z,63.57
2018-06-11T21:10:39.312Z,61.53
2018-06-11T21:13:08.650Z,63.70
2018-06-11T21:15:38.060Z,62.17
2018-06-11T21:18:07.500Z,64.43
2018-06-11T21:20:36.879Z,62.73
2018-06-11T21:23:06.239Z,71.30
2018-06-11T21:25:35.582Z,69.63
2018-06-11T21:28:04.939Z,65.73
2018-06-11T21:30:34.284Z,67.83
2018-06-11T21:33:03.608Z,74.57
2018-06-11T21:35:32.995Z,68.73
2018-06-11T21:38:02.320Z,72.50
2018-06-11T21:40:31.719Z,78.77
2018-06-11T21:43:01.058Z,72.93
2018-06-11T21:45:30.415Z,67.20
2018-06-11T21:47:59.774Z,72.40
2018-06-11T21:50:29.106Z,78.37
2018-06-11T21:52:59.557Z,77.37
2018-06-11T21:55:28.904Z,70.37
2018-06-11T21:57:58.294Z,84.50
2018-06-11T22:00:27.820Z,77.60
2018-06-11T22:02:57.273Z,75.10
2018-06-11T22:05:26.665Z,78.63
2018-06-11T22:07:56.130Z,81.70
2018-06-11T22:10:25.671Z,76.33
2018-06-11T22:12:55.094Z,78.00
2018-06-11T22:15:24.483Z,74.80
2018-06-11T22:17:53.901Z,71.33
2018-06-11T22:20:23.342Z,82.50
2018-06-11T22:22:52.752Z,77.20
2018-06-11T22:25:22.188Z,78.37
2018-06-11T22:27:51.641Z,98.40
2018-06-11T22:30:21.064Z,83.20
2018-06-11T22:32:50.578Z,81.57
2018-06-11T22:35:20.011Z,87.73
2018-06-11T22:37:49.362Z,81.10
2018-06-11T22:40:18.783Z,82.47
2018-06-11T22:42:48.229Z,82.47
2018-06-11T22:45:17.659Z,88.13
2018-06-11T22:47:47.044Z,79.53
2018-06-11T22:50:16.446Z,91.00
2018-06-11T22:52:45.835Z,88.13
2018-06-11T22:55:15.322Z,99.17
2018-06-11T22:57:44.740Z,88.80
2018-06-11T23:00:18.270Z,82.80
2018-06-11T23:02:47.408Z,87.40
2018-06-11T23:05:16.831Z,110.37
2018-06-11T23:07:46.265Z,90.53
2018-06-11T23:10:15.647Z,93.37
2018-06-11T23:12:45.062Z,101.30
2018-06-11T23:15:14.542Z,104.77
2018-06-11T23:17:44.068Z,85.23
2018-06-11T23:20:13.444Z,97.43
2018-06-11T23:22:42.879Z,93.73
2018-06-11T23:25:12.333Z,84.23
2018-06-11T23:27:41.777Z,90.93
2018-06-11T23:30:11.201Z,85.60
2018-06-11T23:32:40.655Z,91.70
2018-06-11T23:35:10.146Z,94.27
2018-06-11T23:37:39.588Z,99.27
2018-06-11T23:40:09.028Z,82.87
2018-06-11T23:42:38.419Z,84.70
2018-06-11T23:45:07.874Z,91.53
2018-06-11T23:47:37.392Z,89.30
2018-06-11T23:50:06.888Z,86.60
2018-06-11T23:52:36.379Z,82.07
2018-06-11T23:55:05.834Z,91.53
2018-06-11T23:57:35.274Z,82.87
